罗盘
风向 的 风向 的 风向 到 风向 300° De Peel Air Base 6/24
风: 3 kt, 1 beaufort

2 kt

3 kt
改变
0 2.000 4.000 6.000 8.000 10.000
FEW 6.200 ft
METAR EHGR 250735Z AUTO 30003KT 280V350 9999 FEW062 12/11 Q1016 BLU

METAR De Peel Air Base - EHDP

De Peel Air Base是Venray,荷兰中的小机场。 该机场有一条跑道: 6/24. 该领域的国际民航组织标志是EHDP.

这份报告是针对2022年9月25日 09:35, 当地时间在Gilze Rijen Air Base进行的。

机场观察

风向为300°,速度为3 kt。 风向在280°和350°之间变化。

可见度为10 km 或者更多。

有几云在6.200 ft的高度。 没有观察到天花板。

温度和风寒是12 °C。 露点为11 °C,相对湿度为94%。 海平面上的气压为1016 hPa (QNH)。

白天

今天,太阳从07:27升起,在19:28降落。 这适用于De Peel Air Base,世界夏令时可能有所不同。 当地时间与世界标准时间之间的时差为+2 小时。 夏令时目前正在进行中。

公司介绍

我们没有关于这个机场的公司信息。

体会

到Vliegles.nl去找飞行课程,跳伞和其他飞行体验。 浏览页面,了解De Peel Air Base附近所有可用的活动。 你也可以使用搜索功能来寻找你所在地附近的特定飞行课程、跳伞或其他飞行体验。

跑道

Id 标题 侧风 逆风 侧风 %
6/24 060°-240° 3 kt 2 kt 87 %

逆风成分最大的方向会被突出显示,并用于横风计算。 这并不一定意味着这个方向在使用。

乌云

6.200 ft FEW 几云

温度 & 天气

温度 12 °C
露点 11 °C
相对湿度 94%
Kp-index 1  

白天

日出
07:31
中午
13:31
日落
19:32 (9h 46m)

小工具

你想在你的网站上有一个关于De Peel Air Base的当前航空天气(METAR)的小部件吗?

</> 显示HTML代码

我们和第三方通过cookies跟踪您在我们网站上的上网行为。如果您继续,我们认为您同意我们的cookie政策。 了解更多